Time;durP1;ratioP1;P1;durP2;ratioP2;P2;SDS_P1;SDS_P2;PMS_P1;PMS_P2;Temp;Humidity;BMP_temperature;BMP_pressure;BME280_temperature;BME280_humidity;BME280_pressure;Samples;Min_cycle;Max_cycle;Signal;HPM_P1;HPM_P2
2022/12/27 08:49:13;;;;;;;3.60;2.45;;;;;;;-0.15;100.00;100294.16;5127819;27;20362;-79
2022/12/27 08:51:40;;;;;;;4.88;3.15;;;;;;;-0.03;100.00;100298.78;5110786;28;20047;-79
2022/12/27 08:54:06;;;;;;;4.35;2.35;;;;;;;0.11;100.00;100301.50;5108400;28;20055;-79
2022/12/27 08:56:33;;;;;;;5.97;2.70;;;;;;;0.22;100.00;100298.19;5107551;28;20071;-79
2022/12/27 08:59:00;;;;;;;4.95;3.05;;;;;;;0.29;100.00;100298.72;5111131;28;20399;-79
2022/12/27 09:01:26;;;;;;;9.80;4.13;;;;;;;0.38;100.00;100300.84;5107651;28;20055;-78
2022/12/27 09:03:53;;;;;;;8.25;3.00;;;;;;;0.49;100.00;100292.16;5106850;28;20479;-79
2022/12/27 09:06:22;;;;;;;2.35;2.13;;;;;;;0.58;100.00;100288.06;5105557;28;20048;-79
2022/12/27 09:08:50;;;;;;;5.65;2.17;;;;;;;0.70;100.00;100290.84;5106928;28;20418;-79
2022/12/27 09:11:19;;;;;;;14.30;2.35;;;;;;;0.83;100.00;100296.31;5110329;28;20055;-79
2022/12/27 09:13:46;;;;;;;6.72;2.78;;;;;;;0.92;100.00;100294.00;5106248;28;20051;-79
2022/12/27 09:16:15;;;;;;;5.00;2.35;;;;;;;0.97;100.00;100300.81;5114206;27;20051;-79
2022/12/27 09:18:42;;;;;;;10.38;2.42;;;;;;;1.12;100.00;100298.97;5125364;27;20058;-80
2022/12/27 09:21:11;;;;;;;4.97;2.17;;;;;;;1.16;100.00;100305.00;5120369;27;20039;-80
2022/12/27 09:23:40;;;;;;;8.85;2.50;;;;;;;1.17;100.00;100296.84;5125240;27;20047;-80
2022/12/27 09:26:08;;;;;;;6.63;2.53;;;;;;;1.31;100.00;100303.16;5126437;27;20043;-80
2022/12/27 09:28:35;;;;;;;4.32;2.47;;;;;;;1.43;100.00;100313.13;5135470;27;20686;-80
2022/12/27 09:31:02;;;;;;;3.42;2.00;;;;;;;1.43;100.00;100313.13;5146621;27;20061;-80
2022/12/27 09:33:29;;;;;;;3.10;2.00;;;;;;;1.38;100.00;100294.63;5147460;27;20509;-80
2022/12/27 09:36:01;;;;;;;3.67;2.25;;;;;;;1.58;100.00;100306.78;5140865;27;20050;-80
2022/12/27 09:38:28;;;;;;;3.53;1.90;;;;;;;1.65;100.00;100309.91;5139794;27;20126;-80
2022/12/27 09:40:58;;;;;;;5.10;1.90;;;;;;;1.63;100.00;100311.81;5146127;27;20546;-80
2022/12/27 09:43:31;;;;;;;3.08;1.85;;;;;;;1.79;100.00;100322.41;5146787;27;20047;-80
2022/12/27 09:45:58;;;;;;;4.18;2.20;;;;;;;1.80;100.00;100316.09;5145544;27;20047;-80
2022/12/27 09:48:31;;;;;;;3.28;1.88;;;;;;;1.85;100.00;100319.34;5142725;27;20113;-80
2022/12/27 09:51:03;;;;;;;4.30;2.22;;;;;;;1.86;100.00;100313.00;5147910;27;20138;-80
2022/12/27 09:53:39;;;;;;;2.38;1.52;;;;;;;1.96;100.00;100310.59;5131561;27;20135;-79
2022/12/27 09:56:11;;;;;;;11.80;2.13;;;;;;;2.03;100.00;100313.69;5141172;27;20055;-79
2022/12/27 09:58:47;;;;;;;7.43;1.85;;;;;;;2.12;100.00;100307.72;5137651;27;20100;-80
2022/12/27 10:01:23;;;;;;;4.22;1.75;;;;;;;2.16;100.00;100314.59;5130469;27;20062;-80
2022/12/27 10:03:51;;;;;;;4.32;2.08;;;;;;;2.26;100.00;100304.13;5133662;27;20150;-80
2022/12/27 10:06:33;;;;;;;5.20;2.33;;;;;;;2.33;100.00;100294.69;5134472;27;20440;-79
2022/12/27 10:09:08;;;;;;;5.75;2.35;;;;;;;2.38;100.00;100292.56;5134147;27;20054;-79
2022/12/27 10:11:44;;;;;;;3.10;2.20;;;;;;;2.53;100.00;100308.56;5134200;27;20409;-79
2022/12/27 10:14:26;;;;;;;6.45;2.42;;;;;;;2.52;100.00;100296.97;5132448;27;20058;-79
2022/12/27 10:16:59;;;;;;;3.58;2.00;;;;;;;2.63;100.00;100298.91;5131212;27;20044;-79
2022/12/27 10:19:39;;;;;;;2.38;1.55;;;;;;;2.72;100.00;100305.47;5120948;27;20077;-79
2022/12/27 10:22:18;;;;;;;4.15;1.90;;;;;;;2.82;100.00;100307.41;5126704;27;20055;-79
2022/12/27 10:24:49;;;;;;;5.13;1.70;;;;;;;2.86;100.00;100304.50;5134357;27;20130;-80
2022/12/27 10:27:21;;;;;;;2.30;1.27;;;;;;;2.88;100.00;100287.31;5133152;27;20490;-80
2022/12/27 10:29:48;;;;;;;2.53;1.67;;;;;;;3.05;100.00;100293.34;5130257;27;20046;-79
2022/12/27 10:32:16;;;;;;;7.55;1.80;;;;;;;3.10;100.00;100289.34;5124940;27;20043;-79
2022/12/27 10:34:42;;;;;;;4.93;2.10;;;;;;;3.14;100.00;100285.47;5133651;27;20055;-80
2022/12/27 10:37:14;;;;;;;3.25;1.75;;;;;;;3.18;100.00;100276.22;5131452;27;20047;-80
2022/12/27 10:39:42;;;;;;;12.18;2.13;;;;;;;3.31;100.00;100278.91;5123789;27;20101;-80
2022/12/27 10:42:21;;;;;;;4.57;1.70;;;;;;;3.35;100.00;100276.84;5131040;27;20054;-80
2022/12/27 10:44:49;;;;;;;6.80;1.40;;;;;;;3.35;100.00;100268.75;5124447;27;20055;-80
2022/12/27 10:47:16;;;;;;;8.10;1.60;;;;;;;3.49;100.00;100276.69;5128574;27;20039;-79
2022/12/27 10:50:02;;;;;;;3.63;1.73;;;;;;;3.51;100.00;100280.13;5128484;27;20051;-79
2022/12/27 10:52:35;;;;;;;2.92;1.75;;;;;;;3.60;100.00;100281.28;5141030;27;20054;-77
2022/12/27 10:55:01;;;;;;;5.10;1.63;;;;;;;3.65;100.00;100283.63;5135224;27;20410;-77
2022/12/27 10:57:30;;;;;;;5.30;2.45;;;;;;;3.65;100.00;100272.88;5135411;27;20474;-80
2022/12/27 11:00:17;;;;;;;4.32;2.22;;;;;;;3.78;100.00;100281.75;5129664;27;20510;-79
2022/12/27 11:02:54;;;;;;;8.57;1.48;;;;;;;3.85;100.00;100288.41;5130360;27;20069;-79
2022/12/27 11:05:23;;;;;;;4.07;1.67;;;;;;;3.91;100.00;100292.44;5132033;27;20055;-80
2022/12/27 11:07:50;;;;;;;4.38;1.55;;;;;;;3.95;100.00;100290.41;5118951;27;20047;-79
2022/12/27 11:10:19;;;;;;;4.70;1.90;;;;;;;3.92;100.00;100279.88;5113844;28;20048;-79
2022/12/27 11:12:57;;;;;;;3.03;1.98;;;;;;;4.00;100.00;100278.28;5134225;27;20134;-79
2022/12/27 11:15:27;;;;;;;4.32;1.88;;;;;;;4.11;100.00;100285.59;5132287;27;20051;-80
2022/12/27 11:17:56;;;;;;;2.53;1.15;;;;;;;4.13;100.00;100278.25;5129750;27;20043;-80
2022/12/27 11:20:26;;;;;;;3.90;1.50;;;;;;;4.22;100.00;100282.94;5132652;27;20517;-80
2022/12/27 11:22:57;;;;;;;3.33;1.48;;;;;;;4.35;100.00;100280.16;5129601;27;20497;-80
2022/12/27 11:25:25;;;;;;;4.82;1.92;;;;;;;4.41;100.00;100270.75;5114434;27;20074;-79
2022/12/27 11:27:54;;;;;;;5.15;1.55;;;;;;;4.48;100.00;100269.28;5154147;27;20055;-80
2022/12/27 11:30:24;;;;;;;4.88;1.42;;;;;;;4.54;100.00;100267.97;5151659;27;20051;-79
2022/12/27 11:32:52;;;;;;;3.38;1.02;;;;;;;4.54;100.00;100271.50;5121469;27;20069;-79
2022/12/27 11:35:21;;;;;;;2.58;1.10;;;;;;;4.54;100.00;100270.66;5119768;27;20054;-80
2022/12/27 11:37:51;;;;;;;4.50;1.40;;;;;;;4.51;100.00;100269.06;5130104;27;20054;-79
2022/12/27 11:40:22;;;;;;;;;;;;;;;4.55;100.00;100275.09;5133996;27;20501;-79
2022/12/27 11:42:52;;;;;;;2.67;0.82;;;;;;;4.53;100.00;100267.13;5127369;27;19927;-80
2022/12/27 11:45:22;;;;;;;4.82;1.50;;;;;;;4.53;100.00;100271.63;5130811;27;20055;-80
2022/12/27 11:47:56;;;;;;;3.95;1.02;;;;;;;4.54;100.00;100266.13;5123486;27;20047;-80
2022/12/27 11:50:42;;;;;;;3.30;1.08;;;;;;;4.56;100.00;100271.38;5131996;27;20059;-80
2022/12/27 11:53:20;;;;;;;3.60;1.58;;;;;;;4.52;100.00;100261.84;5129099;27;20039;-80
2022/12/27 11:56:06;;;;;;;3.83;0.90;;;;;;;4.60;99.53;100262.09;5130630;27;20100;-79
2022/12/27 11:58:50;;;;;;;8.35;1.48;;;;;;;4.60;100.00;100257.56;5130838;27;20051;-80
2022/12/27 12:01:47;;;;;;;3.47;1.52;;;;;;;4.55;100.00;100267.84;5130243;27;20047;-80
2022/12/27 12:04:35;;;;;;;4.60;1.67;;;;;;;4.45;100.00;100256.06;5129692;27;20039;-80
2022/12/27 12:07:15;;;;;;;6.93;1.20;;;;;;;4.51;99.39;100262.81;5127401;27;20448;-80
2022/12/27 12:10:01;;;;;;;2.45;1.20;;;;;;;4.40;100.00;100250.19;5134726;27;20051;-80
2022/12/27 12:13:09;;;;;;;4.47;1.55;;;;;;;4.41;100.00;100266.22;5126983;27;20047;-80
2022/12/27 12:16:17;;;;;;;3.17;1.23;;;;;;;4.41;100.00;100260.84;5121780;27;20108;-80
2022/12/27 12:19:02;;;;;;;9.80;1.40;;;;;;;4.57;100.00;100273.13;5131579;27;20118;-80
2022/12/27 12:21:34;;;;;;;3.67;1.40;;;;;;;4.57;100.00;100276.66;5130724;27;20387;-80
2022/12/27 12:24:28;;;;;;;3.25;1.02;;;;;;;4.63;100.00;100269.94;5129359;27;20076;-81
2022/12/27 12:27:23;;;;;;;3.33;1.15;;;;;;;4.59;100.00;100265.75;5122398;27;20050;-81
2022/12/27 12:30:04;;;;;;;3.90;1.40;;;;;;;4.56;100.00;100241.75;5124077;27;20467;-81
2022/12/27 12:32:49;;;;;;;6.15;1.30;;;;;;;4.71;98.57;100251.34;5131161;27;20047;-80
2022/12/27 12:35:31;;;;;;;1.98;1.23;;;;;;;4.73;99.41;100244.00;5130277;27;20051;-80
2022/12/27 12:38:17;;;;;;;2.75;1.20;;;;;;;4.81;100.00;100256.88;5126613;27;20039;-81
2022/12/27 12:41:09;;;;;;;1.95;1.10;;;;;;;4.91;100.00;100248.94;5125519;27;20044;-81
2022/12/27 12:44:07;;;;;;;3.70;1.10;;;;;;;4.87;100.00;100253.69;5127947;27;20133;-81
2022/12/27 12:46:38;;;;;;;9.73;2.53;;;;;;;4.89;100.00;100243.66;5131210;28;20054;-81
2022/12/27 12:49:38;;;;;;;10.65;2.67;;;;;;;4.93;100.00;100236.19;5123259;27;20047;-80
2022/12/27 12:52:25;;;;;;;2.63;1.42;;;;;;;4.94;100.00;100233.34;5130026;27;20494;-81
2022/12/27 12:55:28;;;;;;;5.32;1.58;;;;;;;5.08;100.00;100242.19;5126946;27;20449;-80
2022/12/27 12:58:07;;;;;;;4.97;1.48;;;;;;;5.19;100.00;100246.69;5105328;27;20062;-80
2022/12/27 13:00:56;;;;;;;5.05;1.70;;;;;;;5.27;100.00;100247.81;5128907;28;20058;-80
2022/12/27 13:04:01;;;;;;;3.70;1.10;;;;;;;5.34;100.00;100245.44;5126450;28;20493;-80
2022/12/27 13:06:59;;;;;;;2.65;1.10;;;;;;;5.32;98.35;100242.88;5065198;28;20068;-80
2022/12/27 13:09:40;;;;;;;4.50;1.30;;;;;;;5.40;98.24;100233.31;5107822;28;20058;-78
2022/12/27 13:12:12;;;;;;;10.23;1.75;;;;;;;5.46;96.30;100230.97;5127647;28;20073;-78
2022/12/27 13:15:06;;;;;;;3.67;1.40;;;;;;;5.52;92.03;100220.66;5127802;27;20047;-78
2022/12/27 13:17:40;;;;;;;2.38;1.13;;;;;;;5.70;94.43;100224.53;5126639;27;20514;-78
2022/12/27 13:20:23;;;;;;;1.88;1.05;;;;;;;5.82;93.94;100228.91;5126705;28;20047;-78
2022/12/27 13:23:00;;;;;;;7.80;1.48;;;;;;;5.84;94.73;100217.97;5128407;27;20104;-79
2022/12/27 13:25:37;;;;;;;3.40;1.17;;;;;;;5.95;93.40;100220.63;5111495;28;20048;-79
2022/12/27 13:28:25;;;;;;;3.97;1.33;;;;;;;6.02;93.02;100223.69;5126355;28;20564;-79
2022/12/27 13:30:58;;;;;;;3.10;1.60;;;;;;;5.98;92.72;100208.78;5128868;28;20049;-79
2022/12/27 13:33:35;;;;;;;4.28;1.42;;;;;;;6.05;92.98;100209.09;5125653;27;20532;-79
2022/12/27 13:36:14;;;;;;;8.45;1.80;;;;;;;6.03;90.94;100215.47;5130085;27;20047;-78
2022/12/27 13:38:54;;;;;;;2.30;1.17;;;;;;;6.10;90.19;100215.81;5130721;27;20051;-79
2022/12/27 13:41:29;;;;;;;5.70;1.42;;;;;;;6.07;90.21;100209.81;5126610;27;20058;-78
2022/12/27 13:44:17;;;;;;;2.58;1.25;;;;;;;6.00;90.24;100206.78;5121931;27;20555;-78
2022/12/27 13:47:03;;;;;;;4.15;2.17;;;;;;;5.93;93.33;100206.44;5126328;27;20506;-78
2022/12/27 13:49:51;;;;;;;5.68;2.13;;;;;;;5.95;92.18;100201.75;5131707;27;20082;-78
2022/12/27 13:52:38;;;;;;;3.22;1.88;;;;;;;5.84;93.41;100194.56;5133327;27;20058;-78
2022/12/27 13:55:35;;;;;;;5.90;1.70;;;;;;;5.88;93.62;100194.31;5120780;27;20169;-78
2022/12/27 13:58:40;;;;;;;5.13;1.70;;;;;;;5.84;93.68;100199.09;5147945;27;20057;-78
2022/12/27 14:01:27;;;;;;;2.80;1.73;;;;;;;5.81;94.06;100196.63;5124621;27;20062;-78
2022/12/27 14:04:21;;;;;;;4.05;1.42;;;;;;;5.79;96.92;100190.53;5128771;27;20047;-78
2022/12/27 14:07:03;;;;;;;6.57;1.38;;;;;;;5.80;98.38;100187.69;5143850;27;20046;-79
2022/12/27 14:09:48;;;;;;;11.93;2.58;;;;;;;5.68;94.80;100196.84;5143950;27;20047;-78
2022/12/27 14:12:45;;;;;;;3.55;1.38;;;;;;;5.68;96.06;100194.97;5119586;27;20054;-78
2022/12/27 14:15:17;;;;;;;5.60;1.92;;;;;;;5.76;96.90;100191.63;5116799;27;20066;-79
2022/12/27 14:17:54;;;;;;;2.15;1.00;;;;;;;5.72;96.95;100187.50;5128683;27;20039;-79
2022/12/27 14:20:45;;;;;;;6.47;1.63;;;;;;;5.65;96.77;100184.44;5127998;27;20043;-79
2022/12/27 14:23:25;;;;;;;3.58;1.45;;;;;;;5.73;97.75;100196.44;5124818;27;20482;-79
2022/12/27 14:26:06;;;;;;;;;;;;;;;5.63;97.03;100199.03;5128564;27;20039;-79
2022/12/27 14:29:14;;;;;;;4.40;1.35;;;;;;;5.63;97.83;100201.72;5125651;27;19923;-78
2022/12/27 14:32:05;;;;;;;2.83;1.27;;;;;;;5.65;99.11;100200.63;5126577;27;20074;-78
2022/12/27 14:35:11;;;;;;;3.80;1.17;;;;;;;5.68;99.75;100203.06;5128602;27;20043;-79
2022/12/27 14:38:11;;;;;;;1.85;1.20;;;;;;;5.76;100.00;100206.97;5124683;27;20062;-79
2022/12/27 14:41:19;;;;;;;4.28;1.52;;;;;;;5.75;100.00;100206.13;5128550;27;20050;-78
2022/12/27 14:44:25;;;;;;;3.63;1.30;;;;;;;5.69;100.00;100209.34;5125440;27;20417;-79
2022/12/27 14:47:12;;;;;;;8.60;1.77;;;;;;;5.65;100.00;100208.72;5130483;27;20043;-80
2022/12/27 14:50:33;;;;;;;2.95;1.90;;;;;;;5.56;100.00;100208.66;5120474;27;20039;-79
2022/12/27 14:53:30;;;;;;;5.15;1.50;;;;;;;5.41;100.00;100189.19;5065906;28;20267;-79
2022/12/27 14:56:09;;;;;;;4.53;1.15;;;;;;;5.34;100.00;100202.31;5054727;28;20041;-80
2022/12/27 14:58:50;;;;;;;4.88;1.55;;;;;;;5.27;100.00;100203.81;5064840;28;20060;-80
2022/12/27 15:01:31;;;;;;;8.43;1.50;;;;;;;5.33;100.00;100203.31;5110630;27;20071;-80
2022/12/27 15:04:08;;;;;;;4.55;1.60;;;;;;;5.28;100.00;100198.31;5126979;27;20047;-80
2022/12/27 15:06:52;;;;;;;6.35;1.83;;;;;;;5.18;100.00;100202.72;5126876;27;20054;-79
2022/12/27 15:09:32;;;;;;;6.85;1.45;;;;;;;5.03;100.00;100201.25;5131550;27;20046;-78
2022/12/27 15:12:14;;;;;;;6.10;2.05;;;;;;;4.97;100.00;100202.63;5132707;27;20043;-78
2022/12/27 15:14:57;;;;;;;7.72;2.33;;;;;;;4.96;100.00;100196.34;5130224;27;20051;-78
2022/12/27 15:17:39;;;;;;;6.57;1.92;;;;;;;4.84;100.00;100181.19;5130147;27;20047;-76
2022/12/27 15:20:31;;;;;;;5.22;2.20;;;;;;;4.87;100.00;100207.88;5128689;27;20039;-78
2022/12/27 15:23:08;;;;;;;6.32;1.73;;;;;;;4.61;100.00;100178.47;5119572;27;20047;-78
2022/12/27 15:25:52;;;;;;;3.38;1.30;;;;;;;4.50;100.00;100191.97;5131292;27;20058;-78
2022/12/27 15:28:30;;;;;;;8.43;1.58;;;;;;;4.46;100.00;100192.28;5128831;27;20043;-78
2022/12/27 15:31:04;;;;;;;4.28;1.75;;;;;;;4.23;100.00;100171.59;5122698;27;20485;-78
2022/12/27 15:33:38;;;;;;;5.32;2.20;;;;;;;4.24;100.00;100186.75;5127773;27;20074;-78
2022/12/27 15:36:11;;;;;;;2.85;1.52;;;;;;;4.15;100.00;100182.09;5125351;27;20130;-78
2022/12/27 15:38:41;;;;;;;6.65;1.65;;;;;;;4.01;100.00;100158.09;5127683;27;20061;-78
2022/12/27 15:41:23;;;;;;;4.35;1.67;;;;;;;3.93;100.00;100168.56;5126160;27;20051;-78
2022/12/27 15:44:04;;;;;;;3.88;1.35;;;;;;;3.90;100.00;100159.78;5127195;27;20051;-78
2022/12/27 15:47:00;;;;;;;4.70;1.98;;;;;;;3.94;100.00;100186.44;5129909;27;20401;-78
2022/12/27 15:49:41;;;;;;;6.72;1.85;;;;;;;3.78;100.00;100176.84;5117395;27;20047;-78
2022/12/27 15:52:15;;;;;;;8.52;1.67;;;;;;;3.83;100.00;100179.19;5125489;27;20043;-78
2022/12/27 15:55:08;;;;;;;2.60;1.60;;;;;;;3.94;100.00;100178.38;5121062;27;20461;-78
2022/12/27 15:57:55;;;;;;;2.72;1.92;;;;;;;3.93;100.00;100172.13;5124134;27;20072;-78
2022/12/27 16:00:31;;;;;;;3.97;1.80;;;;;;;3.84;100.00;100167.44;5126930;27;20046;-77
2022/12/27 16:03:00;;;;;;;3.40;1.83;;;;;;;3.87;100.00;100186.06;5108133;27;20491;-78
2022/12/27 16:05:44;;;;;;;6.18;2.40;;;;;;;3.69;100.00;100159.56;5114188;27;20145;-78
2022/12/27 16:08:36;;;;;;;9.73;1.88;;;;;;;3.66;100.00;100167.88;5124873;27;20143;-78
2022/12/27 16:11:05;;;;;;;6.53;2.05;;;;;;;3.50;100.00;100148.50;5103385;27;20542;-77
2022/12/27 16:13:38;;;;;;;6.77;2.73;;;;;;;3.44;100.00;100165.09;5123797;27;20170;-77
2022/12/27 16:16:06;;;;;;;4.25;1.90;;;;;;;3.64;100.00;100185.94;5128268;27;20061;-78
2022/12/27 16:18:55;;;;;;;7.30;1.80;;;;;;;3.63;100.00;100167.22;5128717;27;20055;-78
2022/12/27 16:21:24;;;;;;;3.08;1.80;;;;;;;3.60;100.00;100184.47;5127053;27;20062;-77
2022/12/27 16:23:54;;;;;;;4.47;2.15;;;;;;;3.41;100.00;100171.53;5136211;27;20042;-78
2022/12/27 16:26:24;;;;;;;5.13;1.90;;;;;;;3.46;100.00;100180.13;5118502;27;20126;-77
2022/12/27 16:28:58;;;;;;;5.33;2.07;;;;;;;3.35;100.00;100170.16;5129298;27;20059;-78
2022/12/27 16:31:27;;;;;;;6.07;3.42;;;;;;;3.40;100.00;100180.56;5122915;27;20361;-78
2022/12/27 16:33:55;;;;;;;6.15;3.25;;;;;;;3.26;100.00;100165.47;5124617;27;20356;-78
2022/12/27 16:36:25;;;;;;;9.05;3.58;;;;;;;3.34;100.00;100157.72;5127467;27;20051;-78
2022/12/27 16:39:01;;;;;;;;;;;;;;;3.45;100.00;100174.88;5127964;27;20054;-78
2022/12/27 16:41:52;;;;;;;5.30;2.50;;;;;;;3.38;100.00;100177.16;5125119;27;19919;-78
2022/12/27 16:44:31;;;;;;;9.18;2.83;;;;;;;3.19;100.00;100158.81;5129260;27;20131;-79
2022/12/27 16:47:21;;;;;;;5.88;2.10;;;;;;;3.20;100.00;100182.06;5128970;27;20074;-78
2022/12/27 16:49:55;;;;;;;;;;;;;;;3.09;100.00;100173.94;5126500;28;20053;-78
2022/12/27 16:52:47;;;;;;;7.68;2.67;;;;;;;2.98;100.00;100177.38;5126809;27;19919;-78
2022/12/27 16:55:29;;;;;;;3.83;2.47;;;;;;;2.97;100.00;100173.00;5120810;28;20139;-78
2022/12/27 16:58:24;;;;;;;7.78;3.30;;;;;;;2.98;100.00;100155.88;5115865;27;20050;-79
2022/12/27 17:00:54;;;;;;;6.13;2.75;;;;;;;2.85;100.00;100145.19;5119130;27;20047;-79
2022/12/27 17:03:30;;;;;;;6.10;2.58;;;;;;;2.79;100.00;100154.53;5126420;27;20485;-79
2022/12/27 17:05:58;;;;;;;7.10;3.03;;;;;;;2.77;100.00;100164.56;5117982;28;20058;-79
2022/12/27 17:08:25;;;;;;;8.82;3.28;;;;;;;2.72;100.00;100153.25;5126490;27;20134;-78
2022/12/27 17:11:03;;;;;;;5.40;2.85;;;;;;;2.68;100.00;100167.91;5131456;27;20126;-78
2022/12/27 17:13:37;;;;;;;4.60;2.25;;;;;;;2.56;100.00;100164.25;5130836;27;20039;-79
2022/12/27 17:16:14;;;;;;;9.45;2.55;;;;;;;2.44;100.00;100143.66;5129891;27;20051;-78
2022/12/27 17:18:47;;;;;;;5.70;3.35;;;;;;;2.45;100.00;100140.00;5132758;27;20047;-78
2022/12/27 17:21:19;;;;;;;6.28;3.38;;;;;;;2.26;100.00;100138.63;5127185;27;20047;-78
2022/12/27 17:23:48;;;;;;;9.90;3.47;;;;;;;2.37;100.00;100151.28;5128990;27;20047;-78
2022/12/27 17:26:41;;;;;;;3.85;3.17;;;;;;;2.37;100.00;100127.13;5130240;27;20043;-78
2022/12/27 17:29:24;;;;;;;4.00;2.33;;;;;;;2.30;100.00;100125.84;5125660;27;20062;-78
2022/12/27 17:32:01;;;;;;;10.40;2.80;;;;;;;2.19;100.00;100133.78;5129062;27;20451;-78
2022/12/27 17:34:36;;;;;;;6.55;2.70;;;;;;;1.99;100.00;100129.78;5126938;27;20053;-78
2022/12/27 17:37:12;;;;;;;10.02;2.63;;;;;;;1.88;100.00;100119.81;5120750;27;20130;-78
2022/12/27 17:40:02;;;;;;;5.25;2.17;;;;;;;1.81;100.00;100119.41;5131075;27;20042;-78
2022/12/27 17:45:30;;;;;;;6.70;2.28;;;;;;;1.74;100.00;100126.13;5130551;27;20102;-78
2022/12/27 17:48:09;;;;;;;7.80;2.20;;;;;;;1.75;100.00;100114.47;5127245;27;20057;-77
2022/12/27 17:50:40;;;;;;;5.22;2.88;;;;;;;1.70;100.00;100112.09;5128726;27;20047;-78
2022/12/27 17:59:02;;;;;;;5.32;2.60;;;;;;;1.56;100.00;100125.56;5134449;27;20092;-78
2022/12/27 18:01:29;;;;;;;2.60;2.28;;;;;;;1.37;100.00;100117.88;5132730;27;20511;-78
2022/12/27 18:03:57;;;;;;;4.53;2.65;;;;;;;1.34;100.00;100123.44;5129625;27;20616;-78
2022/12/27 18:06:24;;;;;;;4.53;2.78;;;;;;;1.30;100.00;100128.16;5112815;27;20048;-78
2022/12/27 18:08:51;;;;;;;4.28;2.40;;;;;;;1.28;100.00;100110.47;5112876;28;20111;-78
2022/12/27 18:11:18;;;;;;;5.43;2.22;;;;;;;1.14;100.00;100114.06;5127831;27;20058;-78
2022/12/27 18:13:51;;;;;;;4.40;2.40;;;;;;;1.12;100.00;100122.22;5132094;27;20053;-77
2022/12/27 18:16:23;;;;;;;6.63;2.13;;;;;;;0.91;100.00;100097.69;5132492;27;20082;-77
2022/12/27 18:18:53;;;;;;;8.43;2.47;;;;;;;0.79;100.00;100087.78;5123618;27;20130;-78
2022/12/27 18:21:24;;;;;;;6.55;2.80;;;;;;;0.87;100.00;100104.19;5132026;27;20054;-77
2022/12/27 18:23:52;;;;;;;5.47;2.67;;;;;;;0.83;100.00;100108.06;5131869;27;20047;-78
2022/12/27 18:26:32;;;;;;;8.82;2.40;;;;;;;0.80;100.00;100110.91;5132198;27;20054;-78
2022/12/27 18:28:59;;;;;;;5.22;2.08;;;;;;;0.82;100.00;100114.38;5123225;27;20043;-78
2022/12/27 18:31:28;;;;;;;4.13;2.30;;;;;;;0.71;100.00;100101.69;5130990;27;20054;-77
2022/12/27 18:33:58;;;;;;;5.30;2.30;;;;;;;0.61;100.00;100081.81;5123623;27;20138;-78
2022/12/27 18:36:29;;;;;;;9.93;2.63;;;;;;;0.63;100.00;100090.59;5132211;27;20293;-77
2022/12/27 18:38:59;;;;;;;5.90;2.53;;;;;;;0.75;100.00;100103.19;5132288;27;20056;-77
2022/12/27 18:41:27;;;;;;;5.78;2.30;;;;;;;0.70;100.00;100083.88;5131909;27;20054;-78
2022/12/27 18:44:01;;;;;;;7.88;2.08;;;;;;;0.66;100.00;100090.38;5130549;27;20061;-78
2022/12/27 18:46:31;;;;;;;7.80;1.95;;;;;;;0.69;100.00;100101.78;5130338;27;20047;-78
2022/12/27 18:48:58;;;;;;;6.20;2.20;;;;;;;0.49;100.00;100095.00;5124105;27;20445;-78
2022/12/27 18:51:34;;;;;;;5.68;2.55;;;;;;;0.27;100.00;100079.47;5131961;27;20485;-78
2022/12/27 18:54:01;;;;;;;9.98;2.50;;;;;;;0.42;100.00;100103.53;5131357;27;20051;-78
2022/12/27 18:56:31;;;;;;;5.57;2.63;;;;;;;0.31;100.00;100088.16;5131918;27;20061;-78
2022/12/27 18:59:05;;;;;;;;;;;;;;;0.31;100.00;100091.69;5132522;27;20047;-78
2022/12/27 19:01:40;;;;;;;12.63;2.80;;;;;;;0.21;100.00;100077.19;5128921;27;20001;-78
2022/12/27 19:04:21;;;;;;;5.20;2.80;;;;;;;0.29;100.00;100090.09;5131165;27;20170;-78
2022/12/27 19:06:54;;;;;;;7.25;2.90;;;;;;;0.23;100.00;100083.28;5131812;27;20062;-78
2022/12/27 19:09:23;;;;;;;5.70;2.97;;;;;;;0.25;100.00;100088.53;5131499;27;20051;-78
2022/12/27 19:11:53;;;;;;;6.40;2.83;;;;;;;0.13;100.00;100082.16;5131665;27;20043;-78
2022/12/27 19:14:21;;;;;;;7.32;2.60;;;;;;;0.19;100.00;100078.22;5130840;27;20321;-78
2022/12/27 19:16:51;;;;;;;10.18;4.80;;;;;;;0.32;100.00;100074.69;5128709;27;20054;-78
2022/12/27 19:19:22;;;;;;;5.68;4.15;;;;;;;0.38;100.00;100073.44;5131066;27;20158;-78
2022/12/27 19:21:50;;;;;;;7.28;2.80;;;;;;;0.32;100.00;100069.34;5131224;27;20104;-78
2022/12/27 19:24:32;;;;;;;5.75;2.80;;;;;;;0.31;100.00;100080.13;5130713;27;20070;-78
2022/12/27 19:27:01;;;;;;;18.60;9.70;;;;;;;0.19;100.00;100062.19;5131380;27;20051;-77
2022/12/27 19:29:30;;;;;;;8.80;5.18;;;;;;;0.27;100.00;100065.22;5129922;27;20042;-78
2022/12/27 19:31:59;;;;;;;11.50;4.73;;;;;;;0.13;100.00;100068.78;5121492;27;20113;-78
2022/12/27 19:34:30;;;;;;;11.65;4.93;;;;;;;0.04;100.00;100053.31;5129679;27;20311;-78
2022/12/27 19:36:58;;;;;;;7.63;3.55;;;;;;;-0.04;100.00;100065.34;5122947;27;20058;-78
2022/12/27 19:39:28;;;;;;;7.65;3.20;;;;;;;-0.03;100.00;100074.19;5130843;27;20047;-78
2022/12/27 19:41:57;;;;;;;8.43;3.22;;;;;;;-0.13;100.00;100047.19;5131105;27;20047;-78
2022/12/27 19:44:24;;;;;;;15.60;3.63;;;;;;;-0.14;100.00;100058.84;5130264;27;20047;-78
2022/12/27 19:46:50;;;;;;;8.38;3.50;;;;;;;-0.11;100.00;100049.78;5120957;27;20043;-78
2022/12/27 19:49:17;;;;;;;5.40;3.33;;;;;;;0.06;100.00;100051.38;5130865;27;20383;-78
2022/12/27 19:51:44;;;;;;;4.75;3.22;;;;;;;0.08;100.00;100045.00;5124903;27;20431;-78
2022/12/27 19:54:14;;;;;;;8.80;3.83;;;;;;;0.14;100.00;100022.38;5129610;27;20539;-78
2022/12/27 19:56:40;;;;;;;6.70;3.17;;;;;;;0.32;100.00;100026.53;5130639;27;20055;-78
2022/12/27 19:59:14;;;;;;;7.50;4.85;;;;;;;0.29;100.00;100024.06;5130166;27;20053;-78
2022/12/27 20:01:41;;;;;;;8.65;3.10;;;;;;;0.13;100.00;100017.97;5129357;27;20043;-78
2022/12/27 20:04:08;;;;;;;14.57;4.25;;;;;;;0.25;100.00;100027.88;5121969;27;20058;-78
2022/12/27 20:06:35;;;;;;;7.65;3.78;;;;;;;0.27;100.00;100031.34;5130267;27;20046;-78
2022/12/27 20:09:01;;;;;;;10.13;3.33;;;;;;;0.31;100.00;100029.31;5129401;27;20495;-78
2022/12/27 20:11:29;;;;;;;7.10;3.20;;;;;;;0.25;100.00;100030.56;5129889;27;20053;-78
2022/12/27 20:13:55;;;;;;;8.00;2.78;;;;;;;0.13;100.00;100026.84;5129212;27;20047;-78
2022/12/27 20:16:22;;;;;;;6.22;3.47;;;;;;;0.07;100.00;100031.72;5129215;27;20047;-78
2022/12/27 20:18:48;;;;;;;7.35;3.20;;;;;;;-0.04;100.00;100029.72;5130104;27;20570;-78
2022/12/27 20:21:17;;;;;;;5.15;2.58;;;;;;;-0.14;100.00;100024.09;5130177;27;20047;-78
2022/12/27 20:23:47;;;;;;;7.05;3.00;;;;;;;-0.15;100.00;100030.41;5129393;27;20050;-78
2022/12/27 20:26:16;;;;;;;;;;;;;;;-0.27;100.00;100024.00;5129404;27;20084;-78
2022/12/27 20:28:44;;;;;;;5.55;3.08;;;;;;;-0.31;100.00;100026.97;5129771;27;19919;-78
2022/12/27 20:31:13;;;;;;;6.28;3.03;;;;;;;-0.40;100.00;100023.88;5128439;27;20054;-78
2022/12/27 20:33:39;;;;;;;13.02;7.07;;;;;;;-0.50;100.00;100019.19;5120577;27;20062;-78
2022/12/27 20:36:07;;;;;;;22.45;10.05;;;;;;;-0.52;100.00;100021.97;5130009;27;20388;-78
2022/12/27 20:38:34;;;;;;;39.88;17.08;;;;;;;-0.50;100.00;100011.19;5129924;27;20109;-78
2022/12/27 20:41:06;;;;;;;27.67;11.88;;;;;;;-0.61;100.00;100015.38;5129973;27;20054;-78
2022/12/27 20:43:32;;;;;;;24.27;10.45;;;;;;;-0.66;100.00;100014.81;5127521;27;20078;-77
2022/12/27 20:46:09;;;;;;;18.98;9.52;;;;;;;-0.65;100.00;100008.47;5127783;27;20047;-76
2022/12/27 20:48:37;;;;;;;15.50;6.00;;;;;;;-0.81;100.00;99999.66;5117755;27;20047;-77
2022/12/27 20:51:07;;;;;;;9.05;5.10;;;;;;;-0.91;100.00;99994.88;5137155;27;20059;-77
2022/12/27 20:53:33;;;;;;;;;;;;;;;-0.92;100.00;100011.88;5127655;27;20088;-77
2022/12/27 20:56:00;;;;;;;9.45;4.40;;;;;;;-0.96;100.00;100018.34;5122150;28;19969;-77
2022/12/27 20:58:27;;;;;;;11.40;5.93;;;;;;;-1.00;100.00;100002.59;5125893;27;20126;-78
2022/12/27 21:00:53;;;;;;;6.97;3.97;;;;;;;-1.02;100.00;99981.34;5128160;27;20123;-78
2022/12/27 21:03:21;;;;;;;9.23;4.38;;;;;;;-0.99;100.00;99973.16;5119126;27;20510;-78
2022/12/27 21:05:50;;;;;;;12.38;6.80;;;;;;;-0.92;100.00;99995.88;5119937;27;20047;-78